aviador You're here:

KISM Decoded Metar

KISSIMMEE/ORLAND in FL, USA
Report Time2018-05-23 05:56:00
UTC Time2018-05-23 06:46:47
Flight Rules vfr VFR
WindCalm
Visibility9999 m
Phenomena:N/A
Clouds:N/A
Expected CloudBase > 400 ft AGL from Temp-Dew spread
CeilingNone
Temp22°C (ISA +7)
Dew Point21°C (94% RH)
QNH1019 hPa
Density Alt1,043 ft
Elevation82 ft
Report Wrong Elevation
Raw Report
METAR KISM 230556Z AUTO 00000KT 10SM CLR 22/21 A3010 RMK AO2 SLP194
T02220206 10244 20217 58004=

Extra information for KISM:More info

Metar Taf Metar & Taf Last 4 Metars F.Rules Stats Wind Profile Meteogram Temp Stats Airport Information Weather charts Add Link Nearby VenuesMetar ALERT Operation Metar Decoded Social comments

AIRNAV info for KISM